sensor_id;sensor_type;location;lat;lon;timestamp;P1;durP1;ratioP1;P2;durP2;ratioP2
20038;SDS011;21737;42.868;25.320;2023-05-07T00:01:01;14.00;;;10.20;;
20038;SDS011;21737;42.868;25.320;2023-05-07T00:04:03;15.20;;;10.90;;
20038;SDS011;21737;42.868;25.320;2023-05-07T00:07:06;15.07;;;10.40;;
20038;SDS011;21737;42.868;25.320;2023-05-07T00:10:07;15.90;;;10.20;;
20038;SDS011;21737;42.868;25.320;2023-05-07T00:13:10;13.43;;;10.37;;
20038;SDS011;21737;42.868;25.320;2023-05-07T00:16:12;16.03;;;10.63;;
20038;SDS011;21737;42.868;25.320;2023-05-07T00:19:13;12.60;;;10.03;;
20038;SDS011;21737;42.868;25.320;2023-05-07T00:22:15;11.90;;;9.17;;
20038;SDS011;21737;42.868;25.320;2023-05-07T00:25:17;15.03;;;10.37;;
20038;SDS011;21737;42.868;25.320;2023-05-07T00:28:20;14.87;;;9.90;;
20038;SDS011;21737;42.868;25.320;2023-05-07T00:31:22;12.60;;;9.87;;
20038;SDS011;21737;42.868;25.320;2023-05-07T00:34:24;13.80;;;9.73;;
20038;SDS011;21737;42.868;25.320;2023-05-07T00:37:25;14.03;;;10.37;;
20038;SDS011;21737;42.868;25.320;2023-05-07T00:40:27;13.37;;;9.50;;
20038;SDS011;21737;42.868;25.320;2023-05-07T00:43:29;13.37;;;9.83;;
20038;SDS011;21737;42.868;25.320;2023-05-07T00:46:31;15.17;;;10.50;;
20038;SDS011;21737;42.868;25.320;2023-05-07T00:49:41;14.37;;;10.17;;
20038;SDS011;21737;42.868;25.320;2023-05-07T00:52:43;15.70;;;10.33;;
20038;SDS011;21737;42.868;25.320;2023-05-07T00:55:45;12.80;;;9.63;;
20038;SDS011;21737;42.868;25.320;2023-05-07T00:58:46;10.70;;;9.43;;
20038;SDS011;21737;42.868;25.320;2023-05-07T01:01:48;15.10;;;9.70;;
20038;SDS011;21737;42.868;25.320;2023-05-07T01:04:50;13.43;;;9.50;;
20038;SDS011;21737;42.868;25.320;2023-05-07T01:07:52;12.20;;;9.60;;
20038;SDS011;21737;42.868;25.320;2023-05-07T01:10:55;14.70;;;9.83;;
20038;SDS011;21737;42.868;25.320;2023-05-07T01:13:58;12.90;;;9.57;;
20038;SDS011;21737;42.868;25.320;2023-05-07T01:17:00;16.20;;;10.00;;
20038;SDS011;21737;42.868;25.320;2023-05-07T01:20:03;15.80;;;9.70;;
20038;SDS011;21737;42.868;25.320;2023-05-07T01:23:06;13.47;;;10.60;;
20038;SDS011;21737;42.868;25.320;2023-05-07T01:26:08;15.10;;;10.00;;
20038;SDS011;21737;42.868;25.320;2023-05-07T01:29:10;12.27;;;9.60;;
20038;SDS011;21737;42.868;25.320;2023-05-07T01:32:12;15.17;;;8.67;;
20038;SDS011;21737;42.868;25.320;2023-05-07T01:35:22;13.33;;;9.37;;
20038;SDS011;21737;42.868;25.320;2023-05-07T01:38:24;14.63;;;9.63;;
20038;SDS011;21737;42.868;25.320;2023-05-07T01:41:26;12.93;;;9.37;;
20038;SDS011;21737;42.868;25.320;2023-05-07T01:44:27;13.40;;;9.30;;
20038;SDS011;21737;42.868;25.320;2023-05-07T01:47:29;14.03;;;9.90;;
20038;SDS011;21737;42.868;25.320;2023-05-07T01:50:32;19.83;;;9.87;;
20038;SDS011;21737;42.868;25.320;2023-05-07T01:53:37;12.10;;;9.80;;
20038;SDS011;21737;42.868;25.320;2023-05-07T01:56:39;13.13;;;9.60;;
20038;SDS011;21737;42.868;25.320;2023-05-07T01:59:41;10.93;;;9.13;;
20038;SDS011;21737;42.868;25.320;2023-05-07T02:02:43;16.57;;;9.97;;
20038;SDS011;21737;42.868;25.320;2023-05-07T02:05:57;11.60;;;9.33;;
20038;SDS011;21737;42.868;25.320;2023-05-07T02:09:06;13.73;;;9.67;;
20038;SDS011;21737;42.868;25.320;2023-05-07T02:12:08;12.87;;;9.73;;
20038;SDS011;21737;42.868;25.320;2023-05-07T02:15:10;11.63;;;8.90;;
20038;SDS011;21737;42.868;25.320;2023-05-07T02:18:12;12.83;;;9.13;;
20038;SDS011;21737;42.868;25.320;2023-05-07T02:21:13;11.23;;;9.30;;
20038;SDS011;21737;42.868;25.320;2023-05-07T02:24:15;15.63;;;9.47;;
20038;SDS011;21737;42.868;25.320;2023-05-07T02:27:17;11.40;;;8.93;;
20038;SDS011;21737;42.868;25.320;2023-05-07T02:30:19;11.17;;;9.30;;
20038;SDS011;21737;42.868;25.320;2023-05-07T02:33:26;15.70;;;9.37;;
20038;SDS011;21737;42.868;25.320;2023-05-07T02:36:28;12.87;;;9.17;;
20038;SDS011;21737;42.868;25.320;2023-05-07T02:39:43;13.87;;;8.93;;
20038;SDS011;21737;42.868;25.320;2023-05-07T02:42:45;12.07;;;9.57;;
20038;SDS011;21737;42.868;25.320;2023-05-07T02:45:47;13.73;;;9.73;;
20038;SDS011;21737;42.868;25.320;2023-05-07T02:48:49;14.93;;;10.23;;
20038;SDS011;21737;42.868;25.320;2023-05-07T02:51:51;13.27;;;9.27;;
20038;SDS011;21737;42.868;25.320;2023-05-07T02:54:57;18.23;;;10.67;;
20038;SDS011;21737;42.868;25.320;2023-05-07T02:57:58;13.33;;;10.70;;
20038;SDS011;21737;42.868;25.320;2023-05-07T03:01:00;11.83;;;9.97;;
20038;SDS011;21737;42.868;25.320;2023-05-07T03:04:16;13.60;;;9.90;;
20038;SDS011;21737;42.868;25.320;2023-05-07T03:07:18;14.30;;;9.80;;
20038;SDS011;21737;42.868;25.320;2023-05-07T03:10:20;15.43;;;9.97;;
20038;SDS011;21737;42.868;25.320;2023-05-07T03:13:21;14.30;;;10.23;;
20038;SDS011;21737;42.868;25.320;2023-05-07T03:16:23;13.20;;;10.40;;
20038;SDS011;21737;42.868;25.320;2023-05-07T03:19:25;15.33;;;9.73;;
20038;SDS011;21737;42.868;25.320;2023-05-07T03:22:27;14.50;;;10.23;;
20038;SDS011;21737;42.868;25.320;2023-05-07T03:25:28;13.73;;;10.20;;
20038;SDS011;21737;42.868;25.320;2023-05-07T03:28:33;14.70;;;9.97;;
20038;SDS011;21737;42.868;25.320;2023-05-07T03:31:38;13.83;;;9.50;;
20038;SDS011;21737;42.868;25.320;2023-05-07T03:34:40;11.90;;;9.30;;
20038;SDS011;21737;42.868;25.320;2023-05-07T03:37:45;16.33;;;9.90;;
20038;SDS011;21737;42.868;25.320;2023-05-07T03:40:48;16.60;;;9.77;;
20038;SDS011;21737;42.868;25.320;2023-05-07T03:43:50;16.37;;;9.80;;
20038;SDS011;21737;42.868;25.320;2023-05-07T03:46:52;14.90;;;10.80;;
20038;SDS011;21737;42.868;25.320;2023-05-07T03:49:54;12.53;;;9.47;;
20038;SDS011;21737;42.868;25.320;2023-05-07T03:52:58;12.60;;;9.40;;
20038;SDS011;21737;42.868;25.320;2023-05-07T03:56:01;12.43;;;8.80;;
20038;SDS011;21737;42.868;25.320;2023-05-07T03:59:07;11.17;;;8.27;;
20038;SDS011;21737;42.868;25.320;2023-05-07T04:02:09;11.03;;;8.37;;
20038;SDS011;21737;42.868;25.320;2023-05-07T04:05:11;12.80;;;8.77;;
20038;SDS011;21737;42.868;25.320;2023-05-07T04:08:14;12.43;;;7.97;;
20038;SDS011;21737;42.868;25.320;2023-05-07T04:11:20;14.37;;;8.40;;
20038;SDS011;21737;42.868;25.320;2023-05-07T04:14:22;12.37;;;8.63;;
20038;SDS011;21737;42.868;25.320;2023-05-07T04:17:23;12.47;;;8.77;;
20038;SDS011;21737;42.868;25.320;2023-05-07T04:20:25;13.40;;;8.80;;
20038;SDS011;21737;42.868;25.320;2023-05-07T04:23:33;13.50;;;8.97;;
20038;SDS011;21737;42.868;25.320;2023-05-07T04:26:38;12.57;;;8.70;;
20038;SDS011;21737;42.868;25.320;2023-05-07T04:29:41;11.23;;;7.60;;
20038;SDS011;21737;42.868;25.320;2023-05-07T04:32:46;13.97;;;8.20;;
20038;SDS011;21737;42.868;25.320;2023-05-07T04:35:49;15.43;;;8.20;;
20038;SDS011;21737;42.868;25.320;2023-05-07T04:38:51;11.90;;;8.13;;
20038;SDS011;21737;42.868;25.320;2023-05-07T04:41:54;12.87;;;8.37;;
20038;SDS011;21737;42.868;25.320;2023-05-07T04:44:56;12.10;;;8.17;;
20038;SDS011;21737;42.868;25.320;2023-05-07T04:47:58;11.43;;;8.10;;
20038;SDS011;21737;42.868;25.320;2023-05-07T04:51:00;11.80;;;7.93;;
20038;SDS011;21737;42.868;25.320;2023-05-07T04:54:02;9.43;;;7.43;;
20038;SDS011;21737;42.868;25.320;2023-05-07T04:57:05;11.93;;;8.67;;
20038;SDS011;21737;42.868;25.320;2023-05-07T05:00:08;13.33;;;8.63;;
20038;SDS011;21737;42.868;25.320;2023-05-07T05:03:12;13.50;;;8.93;;
20038;SDS011;21737;42.868;25.320;2023-05-07T05:06:15;11.67;;;7.83;;
20038;SDS011;21737;42.868;25.320;2023-05-07T05:09:17;10.63;;;8.07;;
20038;SDS011;21737;42.868;25.320;2023-05-07T05:12:20;14.83;;;7.33;;
20038;SDS011;21737;42.868;25.320;2023-05-07T05:15:23;11.83;;;7.53;;
20038;SDS011;21737;42.868;25.320;2023-05-07T05:18:25;11.67;;;7.57;;
20038;SDS011;21737;42.868;25.320;2023-05-07T05:21:27;10.77;;;7.10;;
20038;SDS011;21737;42.868;25.320;2023-05-07T05:24:33;12.07;;;6.87;;
20038;SDS011;21737;42.868;25.320;2023-05-07T05:27:35;9.10;;;6.40;;
20038;SDS011;21737;42.868;25.320;2023-05-07T05:30:39;9.00;;;6.43;;
20038;SDS011;21737;42.868;25.320;2023-05-07T05:33:42;9.70;;;6.30;;
20038;SDS011;21737;42.868;25.320;2023-05-07T05:36:43;8.83;;;5.87;;
20038;SDS011;21737;42.868;25.320;2023-05-07T05:39:48;9.80;;;5.80;;
20038;SDS011;21737;42.868;25.320;2023-05-07T05:42:50;6.67;;;5.40;;
20038;SDS011;21737;42.868;25.320;2023-05-07T05:45:52;7.37;;;5.10;;
20038;SDS011;21737;42.868;25.320;2023-05-07T05:48:54;9.80;;;5.03;;
20038;SDS011;21737;42.868;25.320;2023-05-07T05:51:56;10.40;;;5.70;;
20038;SDS011;21737;42.868;25.320;2023-05-07T05:54:59;6.03;;;4.77;;
20038;SDS011;21737;42.868;25.320;2023-05-07T05:58:01;9.30;;;4.17;;
20038;SDS011;21737;42.868;25.320;2023-05-07T06:01:05;7.73;;;3.97;;
20038;SDS011;21737;42.868;25.320;2023-05-07T06:04:09;10.97;;;4.07;;
20038;SDS011;21737;42.868;25.320;2023-05-07T06:07:11;8.00;;;4.20;;
20038;SDS011;21737;42.868;25.320;2023-05-07T06:10:13;5.50;;;3.70;;
20038;SDS011;21737;42.868;25.320;2023-05-07T06:13:15;5.57;;;3.70;;
20038;SDS011;21737;42.868;25.320;2023-05-07T06:16:17;7.13;;;3.83;;
20038;SDS011;21737;42.868;25.320;2023-05-07T06:19:19;5.93;;;3.78;;
20038;SDS011;21737;42.868;25.320;2023-05-07T06:22:26;6.57;;;4.70;;
20038;SDS011;21737;42.868;25.320;2023-05-07T06:25:29;10.52;;;4.75;;
20038;SDS011;21737;42.868;25.320;2023-05-07T06:28:31;7.18;;;3.88;;
20038;SDS011;21737;42.868;25.320;2023-05-07T06:31:39;4.28;;;3.88;;
20038;SDS011;21737;42.868;25.320;2023-05-07T06:34:42;6.97;;;3.75;;
20038;SDS011;21737;42.868;25.320;2023-05-07T06:37:44;8.40;;;3.72;;
20038;SDS011;21737;42.868;25.320;2023-05-07T06:40:54;7.63;;;4.05;;
20038;SDS011;21737;42.868;25.320;2023-05-07T06:43:57;5.38;;;3.28;;
20038;SDS011;21737;42.868;25.320;2023-05-07T06:47:04;6.45;;;3.10;;
20038;SDS011;21737;42.868;25.320;2023-05-07T06:50:07;6.47;;;3.20;;
20038;SDS011;21737;42.868;25.320;2023-05-07T06:53:10;3.03;;;2.55;;
20038;SDS011;21737;42.868;25.320;2023-05-07T06:56:12;4.28;;;3.38;;
20038;SDS011;21737;42.868;25.320;2023-05-07T06:59:14;4.45;;;2.50;;
20038;SDS011;21737;42.868;25.320;2023-05-07T07:02:17;8.82;;;2.63;;
20038;SDS011;21737;42.868;25.320;2023-05-07T07:05:20;4.47;;;2.58;;
20038;SDS011;21737;42.868;25.320;2023-05-07T07:08:22;8.63;;;3.33;;
20038;SDS011;21737;42.868;25.320;2023-05-07T07:11:25;2.83;;;2.50;;
20038;SDS011;21737;42.868;25.320;2023-05-07T07:14:28;3.03;;;2.38;;
20038;SDS011;21737;42.868;25.320;2023-05-07T07:17:29;6.50;;;2.45;;
20038;SDS011;21737;42.868;25.320;2023-05-07T07:20:31;3.05;;;2.17;;
20038;SDS011;21737;42.868;25.320;2023-05-07T07:23:33;3.95;;;2.47;;
20038;SDS011;21737;42.868;25.320;2023-05-07T07:26:35;5.55;;;2.35;;
20038;SDS011;21737;42.868;25.320;2023-05-07T07:29:37;7.18;;;2.05;;
20038;SDS011;21737;42.868;25.320;2023-05-07T07:32:39;4.00;;;2.20;;
20038;SDS011;21737;42.868;25.320;2023-05-07T07:35:41;5.43;;;2.42;;
20038;SDS011;21737;42.868;25.320;2023-05-07T07:38:44;2.67;;;2.10;;
20038;SDS011;21737;42.868;25.320;2023-05-07T07:41:47;9.63;;;5.47;;
20038;SDS011;21737;42.868;25.320;2023-05-07T07:44:50;9.10;;;5.93;;
20038;SDS011;21737;42.868;25.320;2023-05-07T07:47:56;3.17;;;2.20;;
20038;SDS011;21737;42.868;25.320;2023-05-07T07:50:58;5.18;;;1.92;;
20038;SDS011;21737;42.868;25.320;2023-05-07T07:54:01;4.28;;;1.83;;
20038;SDS011;21737;42.868;25.320;2023-05-07T07:57:06;2.75;;;1.80;;
20038;SDS011;21737;42.868;25.320;2023-05-07T08:00:08;2.30;;;1.50;;
20038;SDS011;21737;42.868;25.320;2023-05-07T08:03:16;1.67;;;1.55;;
20038;SDS011;21737;42.868;25.320;2023-05-07T08:06:22;2.08;;;1.88;;
20038;SDS011;21737;42.868;25.320;2023-05-07T08:09:24;2.08;;;1.85;;
20038;SDS011;21737;42.868;25.320;2023-05-07T08:12:27;4.22;;;2.30;;
20038;SDS011;21737;42.868;25.320;2023-05-07T08:15:29;1.95;;;1.80;;
20038;SDS011;21737;42.868;25.320;2023-05-07T08:18:31;4.80;;;1.90;;
20038;SDS011;21737;42.868;25.320;2023-05-07T08:21:38;2.75;;;2.13;;
20038;SDS011;21737;42.868;25.320;2023-05-07T08:24:40;4.68;;;2.42;;
20038;SDS011;21737;42.868;25.320;2023-05-07T08:27:42;3.40;;;2.15;;
20038;SDS011;21737;42.868;25.320;2023-05-07T08:30:43;2.30;;;2.10;;
20038;SDS011;21737;42.868;25.320;2023-05-07T08:33:45;5.20;;;1.73;;
20038;SDS011;21737;42.868;25.320;2023-05-07T08:36:47;2.65;;;2.10;;
20038;SDS011;21737;42.868;25.320;2023-05-07T08:39:53;2.97;;;2.10;;
20038;SDS011;21737;42.868;25.320;2023-05-07T08:42:58;4.10;;;1.98;;
20038;SDS011;21737;42.868;25.320;2023-05-07T08:46:00;3.80;;;1.77;;
20038;SDS011;21737;42.868;25.320;2023-05-07T08:49:08;2.72;;;1.90;;
20038;SDS011;21737;42.868;25.320;2023-05-07T08:52:11;4.40;;;1.92;;
20038;SDS011;21737;42.868;25.320;2023-05-07T08:55:13;2.30;;;1.80;;
20038;SDS011;21737;42.868;25.320;2023-05-07T08:58:16;3.90;;;1.90;;
20038;SDS011;21737;42.868;25.320;2023-05-07T09:01:18;4.35;;;2.58;;
20038;SDS011;21737;42.868;25.320;2023-05-07T09:04:25;3.05;;;2.25;;
20038;SDS011;21737;42.868;25.320;2023-05-07T09:07:27;2.30;;;1.98;;
20038;SDS011;21737;42.868;25.320;2023-05-07T09:10:29;2.47;;;2.22;;
20038;SDS011;21737;42.868;25.320;2023-05-07T09:13:31;2.60;;;2.17;;
20038;SDS011;21737;42.868;25.320;2023-05-07T09:16:34;3.58;;;2.17;;
20038;SDS011;21737;42.868;25.320;2023-05-07T09:19:37;3.55;;;2.38;;
20038;SDS011;21737;42.868;25.320;2023-05-07T09:22:41;3.33;;;2.47;;
20038;SDS011;21737;42.868;25.320;2023-05-07T09:25:46;2.70;;;2.30;;
20038;SDS011;21737;42.868;25.320;2023-05-07T09:28:58;2.50;;;2.08;;
20038;SDS011;21737;42.868;25.320;2023-05-07T09:32:00;2.33;;;2.08;;
20038;SDS011;21737;42.868;25.320;2023-05-07T09:35:03;2.65;;;2.20;;
20038;SDS011;21737;42.868;25.320;2023-05-07T09:38:05;2.75;;;2.40;;
20038;SDS011;21737;42.868;25.320;2023-05-07T09:41:10;3.97;;;2.47;;
20038;SDS011;21737;42.868;25.320;2023-05-07T09:44:31;4.60;;;2.67;;
20038;SDS011;21737;42.868;25.320;2023-05-07T09:47:33;5.20;;;2.37;;
20038;SDS011;21737;42.868;25.320;2023-05-07T09:50:49;3.87;;;2.60;;
20038;SDS011;21737;42.868;25.320;2023-05-07T09:53:53;5.30;;;2.80;;
20038;SDS011;21737;42.868;25.320;2023-05-07T09:56:57;3.73;;;2.63;;
20038;SDS011;21737;42.868;25.320;2023-05-07T10:00:01;5.73;;;2.77;;
20038;SDS011;21737;42.868;25.320;2023-05-07T10:03:09;3.30;;;2.50;;
20038;SDS011;21737;42.868;25.320;2023-05-07T10:06:24;6.77;;;3.07;;
20038;SDS011;21737;42.868;25.320;2023-05-07T10:09:26;5.13;;;2.97;;
20038;SDS011;21737;42.868;25.320;2023-05-07T10:12:28;3.83;;;2.87;;
20038;SDS011;21737;42.868;25.320;2023-05-07T10:15:31;3.80;;;2.60;;
20038;SDS011;21737;42.868;25.320;2023-05-07T10:18:35;4.20;;;2.50;;
20038;SDS011;21737;42.868;25.320;2023-05-07T10:21:44;4.00;;;2.70;;
20038;SDS011;21737;42.868;25.320;2023-05-07T10:24:49;4.07;;;2.67;;
20038;SDS011;21737;42.868;25.320;2023-05-07T10:27:55;4.97;;;2.90;;
20038;SDS011;21737;42.868;25.320;2023-05-07T10:34:32;4.57;;;2.63;;
20038;SDS011;21737;42.868;25.320;2023-05-07T10:37:36;3.87;;;2.80;;
20038;SDS011;21737;42.868;25.320;2023-05-07T10:40:38;5.10;;;2.83;;
20038;SDS011;21737;42.868;25.320;2023-05-07T10:43:42;4.63;;;3.00;;
20038;SDS011;21737;42.868;25.320;2023-05-07T10:59:32;5.07;;;2.77;;
20038;SDS011;21737;42.868;25.320;2023-05-07T11:06:13;11.10;;;2.70;;
20038;SDS011;21737;42.868;25.320;2023-05-07T11:09:20;4.57;;;2.63;;
20038;SDS011;21737;42.868;25.320;2023-05-07T11:15:41;3.73;;;2.63;;
20038;SDS011;21737;42.868;25.320;2023-05-07T11:18:55;2.90;;;2.40;;
20038;SDS011;21737;42.868;25.320;2023-05-07T11:22:04;8.13;;;2.73;;
20038;SDS011;21737;42.868;25.320;2023-05-07T11:25:18;3.37;;;2.60;;
20038;SDS011;21737;42.868;25.320;2023-05-07T11:28:29;4.87;;;2.60;;
20038;SDS011;21737;42.868;25.320;2023-05-07T11:31:36;3.13;;;2.43;;
20038;SDS011;21737;42.868;25.320;2023-05-07T11:34:38;3.33;;;2.40;;
20038;SDS011;21737;42.868;25.320;2023-05-07T11:37:41;4.03;;;2.60;;
20038;SDS011;21737;42.868;25.320;2023-05-07T11:40:50;3.20;;;2.20;;
20038;SDS011;21737;42.868;25.320;2023-05-07T11:43:56;5.63;;;2.70;;
20038;SDS011;21737;42.868;25.320;2023-05-07T11:46:58;3.80;;;2.60;;
20038;SDS011;21737;42.868;25.320;2023-05-07T11:50:05;8.77;;;2.90;;
20038;SDS011;21737;42.868;25.320;2023-05-07T11:53:07;3.80;;;3.00;;
20038;SDS011;21737;42.868;25.320;2023-05-07T11:56:13;3.67;;;2.40;;
20038;SDS011;21737;42.868;25.320;2023-05-07T11:59:17;6.37;;;2.60;;
20038;SDS011;21737;42.868;25.320;2023-05-07T12:02:19;3.97;;;2.40;;
20038;SDS011;21737;42.868;25.320;2023-05-07T12:05:21;3.23;;;2.93;;
20038;SDS011;21737;42.868;25.320;2023-05-07T12:08:23;3.83;;;3.00;;
20038;SDS011;21737;42.868;25.320;2023-05-07T12:11:25;3.40;;;2.53;;
20038;SDS011;21737;42.868;25.320;2023-05-07T12:14:27;3.10;;;2.60;;
20038;SDS011;21737;42.868;25.320;2023-05-07T12:17:30;3.53;;;2.23;;
20038;SDS011;21737;42.868;25.320;2023-05-07T12:20:33;3.67;;;3.07;;
20038;SDS011;21737;42.868;25.320;2023-05-07T12:23:35;3.93;;;2.87;;
20038;SDS011;21737;42.868;25.320;2023-05-07T12:26:38;3.93;;;2.70;;
20038;SDS011;21737;42.868;25.320;2023-05-07T12:29:43;5.13;;;2.50;;
20038;SDS011;21737;42.868;25.320;2023-05-07T12:32:47;4.30;;;2.60;;
20038;SDS011;21737;42.868;25.320;2023-05-07T12:35:54;5.03;;;2.70;;
20038;SDS011;21737;42.868;25.320;2023-05-07T12:38:56;4.07;;;2.70;;
20038;SDS011;21737;42.868;25.320;2023-05-07T12:41:58;3.20;;;2.60;;
20038;SDS011;21737;42.868;25.320;2023-05-07T12:45:07;5.03;;;2.47;;
20038;SDS011;21737;42.868;25.320;2023-05-07T12:48:09;3.87;;;2.93;;
20038;SDS011;21737;42.868;25.320;2023-05-07T12:51:11;4.87;;;3.20;;
20038;SDS011;21737;42.868;25.320;2023-05-07T12:54:29;4.93;;;2.50;;
20038;SDS011;21737;42.868;25.320;2023-05-07T12:57:37;4.07;;;2.60;;
20038;SDS011;21737;42.868;25.320;2023-05-07T13:00:39;4.13;;;2.90;;
20038;SDS011;21737;42.868;25.320;2023-05-07T13:03:40;3.37;;;2.50;;
20038;SDS011;21737;42.868;25.320;2023-05-07T13:06:42;3.70;;;2.60;;
20038;SDS011;21737;42.868;25.320;2023-05-07T13:09:44;3.03;;;2.60;;
20038;SDS011;21737;42.868;25.320;2023-05-07T13:12:46;3.10;;;2.50;;
20038;SDS011;21737;42.868;25.320;2023-05-07T13:15:47;3.13;;;2.50;;
20038;SDS011;21737;42.868;25.320;2023-05-07T13:18:49;2.50;;;2.30;;
20038;SDS011;21737;42.868;25.320;2023-05-07T13:21:51;5.83;;;2.30;;
20038;SDS011;21737;42.868;25.320;2023-05-07T13:24:53;5.07;;;2.50;;
20038;SDS011;21737;42.868;25.320;2023-05-07T13:27:54;4.93;;;2.80;;
20038;SDS011;21737;42.868;25.320;2023-05-07T13:31:10;4.83;;;2.67;;
20038;SDS011;21737;42.868;25.320;2023-05-07T13:34:12;2.90;;;2.23;;
20038;SDS011;21737;42.868;25.320;2023-05-07T13:37:13;3.87;;;2.60;;
20038;SDS011;21737;42.868;25.320;2023-05-07T13:40:15;3.37;;;2.53;;
20038;SDS011;21737;42.868;25.320;2023-05-07T13:43:17;4.73;;;2.40;;
20038;SDS011;21737;42.868;25.320;2023-05-07T13:46:20;3.57;;;2.40;;
20038;SDS011;21737;42.868;25.320;2023-05-07T13:49:21;5.37;;;2.57;;
20038;SDS011;21737;42.868;25.320;2023-05-07T13:52:23;5.17;;;2.67;;
20038;SDS011;21737;42.868;25.320;2023-05-07T13:55:25;2.93;;;2.50;;
20038;SDS011;21737;42.868;25.320;2023-05-07T13:58:27;3.67;;;2.50;;
20038;SDS011;21737;42.868;25.320;2023-05-07T14:01:28;5.03;;;2.60;;
20038;SDS011;21737;42.868;25.320;2023-05-07T14:04:30;2.90;;;2.50;;
20038;SDS011;21737;42.868;25.320;2023-05-07T14:07:33;3.00;;;2.40;;
20038;SDS011;21737;42.868;25.320;2023-05-07T14:10:35;3.30;;;2.50;;
20038;SDS011;21737;42.868;25.320;2023-05-07T14:13:37;2.93;;;2.23;;
20038;SDS011;21737;42.868;25.320;2023-05-07T14:16:38;3.37;;;2.50;;
20038;SDS011;21737;42.868;25.320;2023-05-07T14:19:40;4.23;;;2.23;;
20038;SDS011;21737;42.868;25.320;2023-05-07T14:22:42;2.63;;;2.43;;
20038;SDS011;21737;42.868;25.320;2023-05-07T14:25:43;2.67;;;2.43;;
20038;SDS011;21737;42.868;25.320;2023-05-07T14:28:46;3.83;;;2.23;;
20038;SDS011;21737;42.868;25.320;2023-05-07T14:31:47;4.43;;;2.90;;
20038;SDS011;21737;42.868;25.320;2023-05-07T14:34:49;3.80;;;2.30;;
20038;SDS011;21737;42.868;25.320;2023-05-07T14:37:52;5.00;;;2.50;;
20038;SDS011;21737;42.868;25.320;2023-05-07T14:40:53;3.60;;;2.43;;
20038;SDS011;21737;42.868;25.320;2023-05-07T14:43:57;2.93;;;2.37;;
20038;SDS011;21737;42.868;25.320;2023-05-07T14:47:00;2.80;;;2.43;;
20038;SDS011;21737;42.868;25.320;2023-05-07T14:50:03;4.73;;;2.50;;
20038;SDS011;21737;42.868;25.320;2023-05-07T14:53:04;7.00;;;2.43;;
20038;SDS011;21737;42.868;25.320;2023-05-07T14:56:06;2.80;;;2.40;;
20038;SDS011;21737;42.868;25.320;2023-05-07T14:59:08;3.27;;;2.37;;
20038;SDS011;21737;42.868;25.320;2023-05-07T15:02:11;3.60;;;2.67;;
20038;SDS011;21737;42.868;25.320;2023-05-07T15:05:13;2.60;;;2.30;;
20038;SDS011;21737;42.868;25.320;2023-05-07T15:08:16;4.03;;;2.37;;
20038;SDS011;21737;42.868;25.320;2023-05-07T15:11:17;2.67;;;2.23;;
20038;SDS011;21737;42.868;25.320;2023-05-07T15:14:19;4.20;;;2.70;;
20038;SDS011;21737;42.868;25.320;2023-05-07T15:17:23;2.70;;;2.30;;
20038;SDS011;21737;42.868;25.320;2023-05-07T15:20:24;3.90;;;2.30;;
20038;SDS011;21737;42.868;25.320;2023-05-07T15:23:26;3.07;;;2.77;;
20038;SDS011;21737;42.868;25.320;2023-05-07T15:26:28;2.40;;;2.13;;
20038;SDS011;21737;42.868;25.320;2023-05-07T15:29:30;3.20;;;2.30;;
20038;SDS011;21737;42.868;25.320;2023-05-07T15:32:34;3.03;;;2.30;;
20038;SDS011;21737;42.868;25.320;2023-05-07T15:35:36;5.47;;;2.53;;
20038;SDS011;21737;42.868;25.320;2023-05-07T15:38:37;3.93;;;2.83;;
20038;SDS011;21737;42.868;25.320;2023-05-07T15:41:39;4.13;;;2.60;;
20038;SDS011;21737;42.868;25.320;2023-05-07T15:44:41;5.90;;;2.70;;
20038;SDS011;21737;42.868;25.320;2023-05-07T15:47:42;6.37;;;2.83;;
20038;SDS011;21737;42.868;25.320;2023-05-07T15:50:44;3.03;;;2.53;;
20038;SDS011;21737;42.868;25.320;2023-05-07T15:53:46;3.10;;;2.80;;
20038;SDS011;21737;42.868;25.320;2023-05-07T15:56:48;5.17;;;2.70;;
20038;SDS011;21737;42.868;25.320;2023-05-07T15:59:49;4.33;;;2.60;;
20038;SDS011;21737;42.868;25.320;2023-05-07T16:02:51;5.00;;;2.67;;
20038;SDS011;21737;42.868;25.320;2023-05-07T16:05:53;5.97;;;3.07;;
20038;SDS011;21737;42.868;25.320;2023-05-07T16:08:58;5.97;;;3.77;;
20038;SDS011;21737;42.868;25.320;2023-05-07T16:11:59;5.73;;;4.77;;
20038;SDS011;21737;42.868;25.320;2023-05-07T16:15:02;4.27;;;3.07;;
20038;SDS011;21737;42.868;25.320;2023-05-07T16:18:04;6.97;;;4.80;;
20038;SDS011;21737;42.868;25.320;2023-05-07T16:21:06;6.50;;;4.43;;
20038;SDS011;21737;42.868;25.320;2023-05-07T16:24:07;9.27;;;4.10;;
20038;SDS011;21737;42.868;25.320;2023-05-07T16:27:09;4.47;;;2.60;;
20038;SDS011;21737;42.868;25.320;2023-05-07T16:30:11;6.27;;;3.33;;
20038;SDS011;21737;42.868;25.320;2023-05-07T16:33:13;3.70;;;3.30;;
20038;SDS011;21737;42.868;25.320;2023-05-07T16:36:15;5.57;;;2.90;;
20038;SDS011;21737;42.868;25.320;2023-05-07T16:39:17;3.73;;;2.93;;
20038;SDS011;21737;42.868;25.320;2023-05-07T16:42:18;5.33;;;3.33;;
20038;SDS011;21737;42.868;25.320;2023-05-07T16:45:20;4.37;;;3.10;;
20038;SDS011;21737;42.868;25.320;2023-05-07T16:48:27;3.67;;;2.97;;
20038;SDS011;21737;42.868;25.320;2023-05-07T16:51:34;4.27;;;3.07;;
20038;SDS011;21737;42.868;25.320;2023-05-07T16:54:36;8.37;;;3.40;;
20038;SDS011;21737;42.868;25.320;2023-05-07T16:57:38;4.70;;;2.63;;
20038;SDS011;21737;42.868;25.320;2023-05-07T17:00:40;5.00;;;2.77;;
20038;SDS011;21737;42.868;25.320;2023-05-07T17:03:51;5.03;;;2.90;;
20038;SDS011;21737;42.868;25.320;2023-05-07T17:06:56;4.60;;;2.60;;
20038;SDS011;21737;42.868;25.320;2023-05-07T17:09:58;5.30;;;2.80;;
20038;SDS011;21737;42.868;25.320;2023-05-07T17:13:00;6.73;;;3.10;;
20038;SDS011;21737;42.868;25.320;2023-05-07T17:16:02;3.70;;;3.30;;
20038;SDS011;21737;42.868;25.320;2023-05-07T17:19:04;6.47;;;3.37;;
20038;SDS011;21737;42.868;25.320;2023-05-07T17:22:06;6.83;;;4.00;;
20038;SDS011;21737;42.868;25.320;2023-05-07T17:25:07;13.67;;;8.33;;
20038;SDS011;21737;42.868;25.320;2023-05-07T17:28:10;7.90;;;5.77;;
20038;SDS011;21737;42.868;25.320;2023-05-07T17:31:12;5.67;;;4.77;;
20038;SDS011;21737;42.868;25.320;2023-05-07T17:34:17;7.97;;;5.60;;
20038;SDS011;21737;42.868;25.320;2023-05-07T17:37:25;23.13;;;6.77;;
20038;SDS011;21737;42.868;25.320;2023-05-07T17:40:27;12.27;;;4.97;;
20038;SDS011;21737;42.868;25.320;2023-05-07T17:43:30;7.57;;;4.80;;
20038;SDS011;21737;42.868;25.320;2023-05-07T17:46:35;10.70;;;5.87;;
20038;SDS011;21737;42.868;25.320;2023-05-07T17:49:38;8.30;;;4.83;;
20038;SDS011;21737;42.868;25.320;2023-05-07T17:52:44;10.73;;;7.03;;
20038;SDS011;21737;42.868;25.320;2023-05-07T17:55:51;11.90;;;7.70;;
20038;SDS011;21737;42.868;25.320;2023-05-07T17:58:53;13.00;;;7.70;;
20038;SDS011;21737;42.868;25.320;2023-05-07T18:02:00;10.93;;;7.63;;
20038;SDS011;21737;42.868;25.320;2023-05-07T18:05:02;10.77;;;7.40;;
20038;SDS011;21737;42.868;25.320;2023-05-07T18:08:07;14.17;;;9.67;;
20038;SDS011;21737;42.868;25.320;2023-05-07T18:11:09;14.37;;;9.50;;
20038;SDS011;21737;42.868;25.320;2023-05-07T18:14:11;8.47;;;6.60;;
20038;SDS011;21737;42.868;25.320;2023-05-07T18:17:13;8.40;;;5.37;;
20038;SDS011;21737;42.868;25.320;2023-05-07T18:20:17;10.27;;;5.93;;
20038;SDS011;21737;42.868;25.320;2023-05-07T18:23:21;8.27;;;5.97;;